Time;durP1;ratioP1;P1;durP2;ratioP2;P2;SDS_P1;SDS_P2;PMS_P1;PMS_P2;Temp;Humidity;BMP_temperature;BMP_pressure;BME280_temperature;BME280_humidity;BME280_pressure;Samples;Min_cycle;Max_cycle;Signal;HPM_P1;HPM_P2
2023/12/11 00:02:07;;;;;;;21.58;4.55;;;8.60;99.90;;;;;;5071217;28;20036;-72
2023/12/11 00:04:33;;;;;;;25.67;2.87;;;8.70;99.90;;;;;;5072226;28;20108;-72
2023/12/11 00:06:59;;;;;;;20.60;3.20;;;8.70;99.90;;;;;;5074930;28;20044;-72
2023/12/11 00:09:27;;;;;;;30.83;3.80;;;8.70;99.90;;;;;;5076746;28;20044;-72
2023/12/11 00:11:53;;;;;;;22.57;4.73;;;8.70;99.90;;;;;;5059749;28;20043;-72
2023/12/11 00:14:18;;;;;;;29.30;4.97;;;8.70;99.90;;;;;;5069256;28;20325;-72
2023/12/11 00:16:50;;;;;;;27.67;3.63;;;8.70;99.90;;;;;;5073400;28;20044;-72
2023/12/11 00:19:16;;;;;;;24.73;4.47;;;8.80;99.90;;;;;;5070829;28;20528;-72
2023/12/11 00:21:44;;;;;;;26.50;4.07;;;8.80;99.90;;;;;;5078137;28;20048;-72
2023/12/11 00:24:10;;;;;;;26.83;3.78;;;8.80;99.90;;;;;;5074493;28;20176;-72
2023/12/11 00:26:36;;;;;;;36.40;5.03;;;8.80;99.90;;;;;;5073618;28;20472;-73
2023/12/11 00:29:02;;;;;;;25.03;3.73;;;8.80;99.90;;;;;;5075224;28;20454;-72
2023/12/11 00:31:27;;;;;;;22.10;3.45;;;8.80;99.90;;;;;;5076940;28;20495;-72
2023/12/11 00:33:53;;;;;;;26.10;3.60;;;8.80;99.90;;;;;;5076380;28;20076;-72
2023/12/11 00:36:23;;;;;;;21.83;4.17;;;8.80;99.90;;;;;;5074705;28;20109;-72
2023/12/11 00:38:49;;;;;;;20.88;3.78;;;8.80;99.90;;;;;;5074279;28;20055;-72
2023/12/11 00:41:18;;;;;;;30.33;3.70;;;8.80;99.90;;;;;;5060213;28;20112;-72
2023/12/11 00:43:44;;;;;;;34.65;3.95;;;8.90;99.90;;;;;;5081734;28;20078;-72
2023/12/11 00:46:16;;;;;;;31.88;5.88;;;8.90;99.90;;;;;;5079405;28;20500;-72
2023/12/11 00:48:42;;;;;;;22.88;3.17;;;8.90;99.90;;;;;;5080491;28;20135;-72
2023/12/11 00:51:18;;;;;;;29.43;4.40;;;8.90;99.90;;;;;;5074572;28;20576;-72
2023/12/11 00:53:45;;;;;;;21.33;3.22;;;9.00;99.90;;;;;;5076468;28;20454;-72
2023/12/11 00:56:10;;;;;;;25.67;4.15;;;9.00;99.90;;;;;;5087917;28;20111;-72
2023/12/11 00:58:36;;;;;;;25.50;4.27;;;9.00;99.90;;;;;;5075023;28;20432;-72
2023/12/11 01:01:02;;;;;;;30.93;4.97;;;9.10;99.90;;;;;;5075888;28;20468;-72
2023/12/11 01:03:28;;;;;;;23.63;4.53;;;9.10;99.90;;;;;;5079625;28;20268;-71
2023/12/11 01:05:56;;;;;;;20.23;3.27;;;9.10;99.90;;;;;;5078399;28;20308;-72
2023/12/11 01:08:22;;;;;;;23.98;3.40;;;9.10;99.90;;;;;;5077272;28;20400;-72
2023/12/11 01:10:47;;;;;;;26.87;3.60;;;9.10;99.90;;;;;;5071481;28;20049;-71
2023/12/11 01:13:16;;;;;;;32.57;4.10;;;9.20;99.90;;;;;;5074628;28;20543;-72
2023/12/11 01:15:44;;;;;;;21.27;4.25;;;9.20;99.90;;;;;;5081854;28;20581;-72
2023/12/11 01:18:10;;;;;;;35.22;4.22;;;9.10;99.90;;;;;;5081776;28;20406;-72
2023/12/11 01:20:35;;;;;;;29.17;5.17;;;9.20;99.90;;;;;;5079796;28;20044;-72
2023/12/11 01:23:01;;;;;;;23.40;3.20;;;9.10;99.90;;;;;;5073574;28;20127;-71
2023/12/11 01:25:32;;;;;;;21.00;4.18;;;9.10;99.90;;;;;;5078394;28;20086;-72
2023/12/11 01:28:01;;;;;;;29.05;3.53;;;9.10;99.90;;;;;;5076799;28;20132;-72
2023/12/11 01:30:27;;;;;;;19.52;3.78;;;9.10;99.90;;;;;;5061299;28;20048;-72
2023/12/11 01:32:52;;;;;;;32.17;3.87;;;9.00;99.90;;;;;;5069725;28;20349;-72
2023/12/11 01:35:25;;;;;;;23.03;3.83;;;9.00;99.90;;;;;;5077177;28;20711;-75
2023/12/11 01:37:51;;;;;;;16.42;3.20;;;9.00;99.90;;;;;;5077746;28;20035;-74
2023/12/11 01:40:19;;;;;;;22.60;3.30;;;9.00;99.90;;;;;;5071224;28;20567;-73
2023/12/11 01:42:45;;;;;;;18.02;3.30;;;9.00;99.90;;;;;;5077562;28;20168;-72
2023/12/11 01:45:11;;;;;;;23.00;3.67;;;9.00;99.90;;;;;;5080008;28;20507;-73
2023/12/11 01:47:36;;;;;;;25.03;3.10;;;9.10;99.90;;;;;;5086358;28;20589;-73
2023/12/11 01:50:03;;;;;;;18.83;3.00;;;9.00;99.90;;;;;;5081111;28;20047;-73
2023/12/11 01:52:29;;;;;;;27.00;4.32;;;9.00;99.90;;;;;;5076548;28;20316;-73
2023/12/11 01:54:55;;;;;;;28.70;3.83;;;8.90;99.90;;;;;;5076017;28;20452;-73
2023/12/11 01:57:20;;;;;;;30.87;4.13;;;8.90;99.90;;;;;;5079081;28;20040;-73
2023/12/11 01:59:46;;;;;;;20.90;2.80;;;8.90;99.90;;;;;;5070344;28;20174;-73
2023/12/11 02:02:12;;;;;;;18.45;4.32;;;8.90;99.90;;;;;;5075090;28;20058;-73
2023/12/11 02:04:39;;;;;;;19.97;3.67;;;8.90;99.90;;;;;;5075974;28;20073;-73
2023/12/11 02:07:04;;;;;;;33.10;3.63;;;8.90;99.90;;;;;;5080310;28;20051;-73
2023/12/11 02:09:32;;;;;;;23.63;3.90;;;8.90;99.90;;;;;;5074407;28;20052;-73
2023/12/11 02:11:58;;;;;;;22.15;4.18;;;8.80;99.90;;;;;;5077748;28;20528;-73
2023/12/11 02:14:24;;;;;;;19.67;3.00;;;8.90;99.90;;;;;;5078450;28;20059;-72
2023/12/11 02:16:53;;;;;;;29.27;3.60;;;8.90;99.90;;;;;;5068967;28;20056;-73
2023/12/11 02:19:22;;;;;;;23.42;4.63;;;8.90;99.90;;;;;;5066468;28;20052;-72
2023/12/11 02:21:48;;;;;;;24.00;3.65;;;8.90;99.90;;;;;;5075724;28;20177;-73
2023/12/11 02:24:25;;;;;;;25.40;3.50;;;8.90;99.90;;;;;;5076147;28;20789;-73
2023/12/11 02:26:51;;;;;;;23.73;4.60;;;8.90;99.90;;;;;;5080438;28;20484;-73
2023/12/11 02:29:16;;;;;;;23.53;3.70;;;8.90;99.90;;;;;;5074406;28;20355;-73
2023/12/11 02:31:42;;;;;;;23.37;3.27;;;9.00;99.90;;;;;;5074329;28;20752;-72
2023/12/11 02:34:08;;;;;;;30.10;3.77;;;9.00;99.90;;;;;;5074500;28;20035;-73
2023/12/11 02:36:36;;;;;;;20.23;3.53;;;9.00;99.90;;;;;;5079206;28;20093;-73
2023/12/11 02:39:03;;;;;;;28.75;4.40;;;9.00;99.90;;;;;;5058078;28;20145;-72
2023/12/11 02:41:31;;;;;;;21.50;3.38;;;9.00;99.90;;;;;;5076731;28;20101;-73
2023/12/11 02:43:58;;;;;;;22.48;4.35;;;9.00;99.90;;;;;;5073347;28;20133;-72
2023/12/11 02:46:27;;;;;;;41.05;4.95;;;8.90;99.90;;;;;;5076009;28;20044;-72
2023/12/11 02:48:55;;;;;;;24.65;3.80;;;9.00;99.90;;;;;;5074754;28;20083;-72
2023/12/11 02:51:20;;;;;;;27.55;5.22;;;9.00;99.90;;;;;;5075686;28;20303;-72
2023/12/11 02:53:46;;;;;;;24.30;4.30;;;8.90;99.90;;;;;;5070762;28;20037;-72
2023/12/11 02:56:12;;;;;;;33.27;4.80;;;8.90;99.90;;;;;;5074104;28;20049;-73
2023/12/11 02:58:37;;;;;;;26.13;3.90;;;8.90;99.90;;;;;;5087002;28;20160;-73
2023/12/11 03:01:03;;;;;;;23.40;4.10;;;8.90;99.90;;;;;;5076239;28;20092;-73
2023/12/11 03:03:29;;;;;;;32.55;4.35;;;9.00;99.90;;;;;;5082981;28;20047;-73
2023/12/11 03:05:56;;;;;;;20.40;4.57;;;9.00;99.90;;;;;;5080395;28;20651;-73
2023/12/11 03:08:22;;;;;;;25.30;4.22;;;9.00;99.90;;;;;;5070940;28;20128;-73
2023/12/11 03:10:53;;;;;;;16.85;2.97;;;9.00;99.90;;;;;;5072812;28;20040;-73
2023/12/11 03:13:19;;;;;;;31.38;4.68;;;9.00;99.90;;;;;;5081904;28;20160;-72
2023/12/11 03:15:45;;;;;;;20.50;3.50;;;9.00;99.90;;;;;;5076880;28;20112;-72
2023/12/11 03:18:10;;;;;;;31.97;4.57;;;9.00;99.90;;;;;;5082292;28;20064;-73
2023/12/11 03:20:36;;;;;;;30.33;4.10;;;9.00;99.90;;;;;;5081593;28;20040;-72
2023/12/11 03:23:02;;;;;;;34.23;5.77;;;9.00;99.90;;;;;;5074317;28;20404;-73
2023/12/11 03:25:27;;;;;;;19.73;3.47;;;9.00;99.90;;;;;;5075830;28;20584;-72
2023/12/11 03:27:53;;;;;;;36.57;4.07;;;9.10;99.90;;;;;;5072336;28;20098;-73
2023/12/11 03:30:23;;;;;;;28.05;4.30;;;9.00;99.90;;;;;;5074496;28;20375;-72
2023/12/11 03:32:49;;;;;;;32.47;5.35;;;9.10;99.90;;;;;;5075617;28;20032;-73
2023/12/11 03:35:17;;;;;;;34.50;4.93;;;9.10;99.90;;;;;;5076659;28;20170;-73
2023/12/11 03:37:43;;;;;;;36.47;4.65;;;9.00;99.90;;;;;;5074867;28;20454;-73
2023/12/11 03:40:09;;;;;;;16.40;3.10;;;9.10;99.90;;;;;;5072965;28;20062;-73
2023/12/11 03:42:34;;;;;;;37.05;4.25;;;9.10;99.90;;;;;;5076118;28;20039;-73
2023/12/11 03:45:00;;;;;;;30.23;4.53;;;9.10;99.90;;;;;;5073355;28;20052;-73
2023/12/11 03:47:26;;;;;;;26.40;4.30;;;9.10;99.90;;;;;;5075569;28;20127;-73
2023/12/11 03:49:51;;;;;;;27.83;4.37;;;9.10;99.90;;;;;;5081571;28;20036;-72
2023/12/11 03:52:17;;;;;;;25.17;4.67;;;9.10;99.90;;;;;;5054139;28;20322;-73
2023/12/11 03:54:43;;;;;;;31.33;4.40;;;9.10;99.90;;;;;;5082728;28;20495;-73
2023/12/11 03:57:11;;;;;;;39.50;5.27;;;9.20;99.90;;;;;;5075394;28;20292;-73
2023/12/11 03:59:36;;;;;;;29.63;4.68;;;9.10;99.90;;;;;;5075115;28;20054;-73
2023/12/11 04:02:05;;;;;;;24.77;3.97;;;9.10;99.90;;;;;;5076837;28;20040;-74
2023/12/11 04:04:31;;;;;;;24.27;4.53;;;9.10;99.90;;;;;;5079896;28;20052;-73
2023/12/11 04:06:56;;;;;;;28.37;5.43;;;9.20;99.90;;;;;;5077015;28;20050;-73
2023/12/11 04:09:22;;;;;;;26.53;3.50;;;9.20;99.90;;;;;;5081900;28;20114;-73
2023/12/11 04:11:48;;;;;;;22.17;4.77;;;9.20;99.90;;;;;;5076499;28;20064;-73
2023/12/11 04:14:14;;;;;;;34.23;5.97;;;9.20;99.90;;;;;;5075403;28;20296;-74
2023/12/11 04:16:41;;;;;;;34.43;6.00;;;9.20;99.90;;;;;;5078382;28;20044;-73
2023/12/11 04:19:10;;;;;;;21.55;4.15;;;9.10;99.90;;;;;;5076473;28;20113;-73
2023/12/11 04:21:35;;;;;;;23.63;4.30;;;9.10;99.90;;;;;;5062273;28;20116;-73
2023/12/11 04:24:01;;;;;;;23.97;3.57;;;9.20;99.90;;;;;;5082393;28;20043;-73
2023/12/11 04:26:27;;;;;;;23.97;3.80;;;9.20;99.90;;;;;;5078573;28;20036;-74
2023/12/11 04:28:52;;;;;;;24.10;3.93;;;9.10;99.90;;;;;;5080212;28;20123;-73
2023/12/11 04:31:23;;;;;;;19.70;3.20;;;9.10;99.90;;;;;;5076008;28;20040;-73
2023/12/11 04:33:49;;;;;;;21.15;3.90;;;9.10;99.90;;;;;;5079963;28;20063;-73
2023/12/11 04:36:15;;;;;;;28.33;3.88;;;9.10;99.90;;;;;;5074511;28;20052;-74
2023/12/11 04:38:40;;;;;;;20.27;3.30;;;9.00;99.90;;;;;;5079750;28;20075;-73
2023/12/11 04:41:06;;;;;;;29.77;5.00;;;9.00;99.90;;;;;;5078606;28;20339;-73
2023/12/11 04:43:33;;;;;;;21.23;3.20;;;9.00;99.90;;;;;;5080912;28;20047;-73
2023/12/11 04:45:59;;;;;;;22.98;3.63;;;9.00;99.90;;;;;;5074123;28;20292;-73
2023/12/11 04:48:25;;;;;;;23.80;4.22;;;9.00;99.90;;;;;;5082628;28;20159;-73
2023/12/11 04:50:56;;;;;;;21.95;3.17;;;9.00;99.90;;;;;;5080383;28;20071;-73
2023/12/11 04:53:25;;;;;;;20.73;3.45;;;9.00;99.90;;;;;;5077417;28;20044;-73
2023/12/11 04:55:50;;;;;;;25.80;4.27;;;9.00;99.90;;;;;;5078431;28;20040;-73
2023/12/11 04:58:16;;;;;;;30.70;4.50;;;9.00;99.90;;;;;;5075044;28;20043;-74
2023/12/11 05:00:42;;;;;;;24.50;4.20;;;8.90;99.90;;;;;;5083771;28;20579;-73
2023/12/11 05:03:07;;;;;;;18.90;2.93;;;9.00;99.90;;;;;;5075510;28;20131;-73
2023/12/11 05:05:38;;;;;;;18.67;4.00;;;9.00;99.90;;;;;;5076018;28;20046;-73
2023/12/11 05:08:07;;;;;;;24.33;2.85;;;9.00;99.90;;;;;;5077589;28;20123;-73
2023/12/11 05:10:32;;;;;;;21.40;4.70;;;8.90;99.90;;;;;;5078502;28;20043;-73
2023/12/11 05:12:58;;;;;;;19.85;4.78;;;9.00;99.90;;;;;;5080903;28;20051;-74
2023/12/11 05:15:27;;;;;;;19.37;3.53;;;9.00;99.90;;;;;;5076643;28;20036;-74
2023/12/11 05:17:55;;;;;;;28.80;4.07;;;9.00;99.90;;;;;;5085169;28;20036;-74
2023/12/11 05:20:23;;;;;;;17.38;2.75;;;9.00;99.90;;;;;;5061609;28;20118;-73
2023/12/11 05:22:51;;;;;;;29.40;4.75;;;9.00;99.90;;;;;;5083038;28;20576;-73
2023/12/11 05:25:17;;;;;;;20.90;3.63;;;9.00;99.90;;;;;;5083096;28;20139;-73
2023/12/11 05:27:43;;;;;;;18.90;3.97;;;9.00;99.90;;;;;;5079842;28;20503;-73
2023/12/11 05:30:11;;;;;;;16.93;3.60;;;9.00;99.90;;;;;;5084935;28;20036;-73
2023/12/11 05:32:41;;;;;;;15.15;3.00;;;9.00;99.90;;;;;;5081526;28;20035;-73
2023/12/11 05:35:13;;;;;;;26.20;4.40;;;9.00;99.90;;;;;;5093907;28;20093;-73
2023/12/11 05:37:38;;;;;;;16.55;3.58;;;9.00;99.90;;;;;;5077706;28;20048;-73
2023/12/11 05:40:05;;;;;;;18.50;3.47;;;9.00;99.90;;;;;;5073338;28;20130;-73
2023/12/11 05:42:31;;;;;;;27.50;3.17;;;9.00;99.90;;;;;;5080925;28;20549;-73
2023/12/11 05:44:57;;;;;;;20.57;4.43;;;9.00;99.90;;;;;;5088868;28;20040;-73
2023/12/11 05:47:22;;;;;;;24.47;4.53;;;9.00;99.90;;;;;;5083490;28;20044;-73
2023/12/11 05:49:53;;;;;;;28.53;3.00;;;8.90;99.90;;;;;;5081787;28;20071;-73
2023/12/11 05:52:22;;;;;;;17.63;4.78;;;9.00;99.90;;;;;;5095256;27;20036;-74
2023/12/11 05:54:50;;;;;;;21.02;3.08;;;9.00;99.90;;;;;;5075609;28;20040;-73
2023/12/11 05:57:16;;;;;;;14.57;3.40;;;8.90;99.90;;;;;;5074946;28;20059;-74
2023/12/11 05:59:42;;;;;;;27.90;3.75;;;8.90;99.90;;;;;;5081347;28;20330;-74
2023/12/11 06:02:08;;;;;;;17.50;3.83;;;8.80;99.90;;;;;;5080743;28;20075;-74
2023/12/11 06:04:33;;;;;;;16.73;3.33;;;8.90;99.90;;;;;;5074672;28;20455;-74
2023/12/11 06:06:59;;;;;;;14.87;2.87;;;8.90;99.90;;;;;;5080715;28;20048;-74
2023/12/11 06:09:25;;;;;;;24.47;3.43;;;8.90;99.90;;;;;;5081561;28;20522;-74
2023/12/11 06:11:56;;;;;;;22.03;4.10;;;8.90;99.90;;;;;;5077786;28;20085;-74
2023/12/11 06:14:22;;;;;;;16.95;3.35;;;8.90;99.90;;;;;;5077326;28;20071;-73
2023/12/11 06:16:48;;;;;;;24.47;3.57;;;8.80;99.90;;;;;;5082701;28;20124;-74
2023/12/11 06:19:16;;;;;;;22.77;3.67;;;8.90;99.90;;;;;;5081918;28;20523;-74
2023/12/11 06:21:44;;;;;;;26.13;3.40;;;8.80;99.90;;;;;;5083149;28;20047;-73
2023/12/11 06:24:10;;;;;;;17.77;3.13;;;8.80;99.90;;;;;;5078191;28;20040;-74
2023/12/11 06:26:36;;;;;;;14.17;3.40;;;8.80;99.90;;;;;;5081686;28;20407;-74
2023/12/11 06:29:02;;;;;;;26.05;4.18;;;8.80;99.90;;;;;;5076453;28;20032;-74
2023/12/11 06:31:29;;;;;;;23.10;4.28;;;8.90;99.90;;;;;;5079482;28;20076;-74
2023/12/11 06:33:56;;;;;;;19.67;2.60;;;8.80;99.90;;;;;;5082363;28;20036;-74
2023/12/11 06:36:26;;;;;;;26.15;3.83;;;8.80;99.90;;;;;;5079378;28;20546;-74
2023/12/11 06:38:51;;;;;;;23.95;3.92;;;8.80;99.90;;;;;;5069686;28;20040;-74
2023/12/11 06:41:18;;;;;;;20.97;3.70;;;8.80;99.90;;;;;;5081354;28;20032;-73
2023/12/11 06:43:46;;;;;;;;;;;8.80;99.90;;;;;;5075556;28;20048;-72
2023/12/11 06:46:12;;;;;;;19.10;3.42;;;8.80;99.90;;;;;;5077137;28;19921;-73
2023/12/11 06:48:40;;;;;;;21.13;2.80;;;8.80;99.90;;;;;;5085375;28;20046;-73
2023/12/11 06:51:06;;;;;;;21.52;4.68;;;8.80;99.90;;;;;;5076230;28;20049;-76
2023/12/11 06:53:32;;;;;;;19.50;3.80;;;8.80;99.90;;;;;;5081747;28;20119;-76
2023/12/11 06:55:57;;;;;;;21.43;3.07;;;8.80;99.90;;;;;;5081763;28;20059;-76
2023/12/11 06:58:26;;;;;;;14.43;3.20;;;8.80;99.90;;;;;;5081625;28;20816;-75
2023/12/11 07:00:51;;;;;;;26.42;3.75;;;8.80;99.90;;;;;;5084277;28;20038;-74
2023/12/11 07:03:17;;;;;;;16.60;2.55;;;8.70;99.90;;;;;;5078170;28;20035;-73
2023/12/11 07:05:44;;;;;;;14.03;2.67;;;8.70;99.90;;;;;;5080070;28;20056;-72
2023/12/11 07:08:10;;;;;;;15.30;3.70;;;8.70;99.90;;;;;;5067087;28;20280;-78
2023/12/11 07:10:36;;;;;;;19.08;2.95;;;8.70;99.90;;;;;;5074965;28;20469;-74
2023/12/11 07:13:02;;;;;;;17.73;3.28;;;8.70;99.90;;;;;;5085701;28;20518;-72
2023/12/11 07:15:28;;;;;;;;;;;8.70;99.90;;;;;;5080588;28;20472;-72
2023/12/11 07:17:55;;;;;;;20.90;2.72;;;8.70;99.90;;;;;;5083668;28;19922;-72
2023/12/11 07:20:23;;;;;;;;;;;8.70;99.90;;;;;;5080759;28;20420;-72
2023/12/11 07:22:49;;;;;;;15.93;2.53;;;8.70;99.90;;;;;;5081894;28;19963;-72
2023/12/11 07:25:16;;;;;;;18.13;2.80;;;8.70;99.90;;;;;;5076535;28;20037;-71
2023/12/11 07:27:45;;;;;;;12.10;1.77;;;8.70;99.90;;;;;;5073539;28;20319;-72
2023/12/11 07:30:14;;;;;;;14.60;3.25;;;8.70;99.90;;;;;;5081741;28;20048;-72
2023/12/11 07:32:41;;;;;;;15.68;2.05;;;8.70;99.90;;;;;;5082156;28;20076;-72
2023/12/11 07:35:08;;;;;;;;;;;8.80;99.90;;;;;;5080976;28;20050;-72
2023/12/11 07:37:34;;;;;;;15.48;2.10;;;8.70;99.90;;;;;;5079128;28;19916;-72
2023/12/11 07:39:59;;;;;;;13.00;1.97;;;8.70;99.90;;;;;;5080919;28;20067;-72
2023/12/11 07:42:30;;;;;;;13.60;2.77;;;8.80;99.90;;;;;;5078397;28;20289;-73
2023/12/11 07:44:56;;;;;;;10.38;2.10;;;8.80;99.90;;;;;;5080515;28;20093;-72
2023/12/11 07:47:27;;;;;;;11.48;2.20;;;8.80;99.90;;;;;;5082533;28;20499;-72
2023/12/11 07:49:53;;;;;;;8.98;1.98;;;8.80;99.90;;;;;;5077450;28;20109;-73
2023/12/11 07:52:21;;;;;;;17.00;2.77;;;8.80;99.90;;;;;;5081106;28;20040;-72
2023/12/11 07:54:47;;;;;;;14.20;2.00;;;8.80;99.90;;;;;;5073133;28;20063;-72
2023/12/11 07:57:12;;;;;;;18.13;2.50;;;8.80;99.90;;;;;;5075046;28;20048;-72
2023/12/11 07:59:39;;;;;;;16.80;2.10;;;8.80;99.90;;;;;;5080541;28;20046;-72
2023/12/11 08:02:05;;;;;;;15.77;2.20;;;8.80;99.90;;;;;;5078722;28;20078;-72
2023/12/11 08:04:30;;;;;;;10.17;2.17;;;8.80;99.90;;;;;;5083403;28;20111;-72
2023/12/11 08:06:56;;;;;;;9.43;2.33;;;8.80;99.90;;;;;;5075749;28;20039;-72
2023/12/11 08:09:22;;;;;;;12.30;2.47;;;8.80;99.90;;;;;;5076746;28;20040;-73
2023/12/11 08:11:49;;;;;;;14.83;2.63;;;8.80;99.90;;;;;;5077566;28;20527;-72
2023/12/11 08:14:16;;;;;;;12.32;2.30;;;8.80;99.90;;;;;;5092035;28;20082;-72
2023/12/11 08:16:41;;;;;;;11.77;2.33;;;8.80;99.90;;;;;;5084676;28;20050;-73
2023/12/11 08:19:07;;;;;;;11.63;2.17;;;8.80;99.90;;;;;;5085055;28;20048;-72
2023/12/11 08:21:33;;;;;;;15.13;2.07;;;8.80;99.90;;;;;;5076395;28;20688;-73
2023/12/11 08:23:58;;;;;;;12.00;1.97;;;8.80;99.90;;;;;;5078026;28;20048;-72
2023/12/11 08:26:24;;;;;;;9.60;2.13;;;8.80;99.90;;;;;;5073462;28;20409;-72
2023/12/11 08:28:50;;;;;;;11.13;2.30;;;8.80;99.90;;;;;;5086202;28;20036;-72
2023/12/11 08:31:16;;;;;;;7.80;2.67;;;8.80;99.90;;;;;;5082430;28;20550;-72
2023/12/11 08:33:43;;;;;;;11.32;2.75;;;8.80;99.90;;;;;;5082997;28;20471;-72
2023/12/11 08:36:09;;;;;;;17.85;2.97;;;8.80;99.90;;;;;;5087235;28;20100;-72
2023/12/11 08:38:34;;;;;;;13.40;2.28;;;8.80;99.90;;;;;;5082328;28;20403;-72
2023/12/11 08:41:00;;;;;;;9.27;3.13;;;8.80;99.90;;;;;;5075472;28;20043;-72
2023/12/11 08:43:26;;;;;;;11.00;2.20;;;8.80;99.90;;;;;;5080038;28;20036;-72
2023/12/11 08:45:51;;;;;;;10.37;2.30;;;8.80;99.90;;;;;;5078889;28;20051;-72
2023/12/11 08:48:18;;;;;;;13.10;2.78;;;8.80;99.90;;;;;;5082641;28;20031;-72
2023/12/11 08:50:43;;;;;;;16.48;2.60;;;8.80;99.90;;;;;;5073060;28;20040;-72
2023/12/11 08:53:09;;;;;;;11.43;2.37;;;8.80;99.90;;;;;;5085396;28;20039;-72
2023/12/11 08:55:35;;;;;;;12.98;2.45;;;8.80;99.90;;;;;;5084693;28;20127;-72
2023/12/11 08:58:01;;;;;;;11.65;2.40;;;8.80;99.90;;;;;;5084859;28;20048;-72
2023/12/11 09:00:28;;;;;;;15.88;1.95;;;8.80;99.90;;;;;;5083291;28;20071;-73
2023/12/11 09:02:53;;;;;;;;;;;8.80;99.90;;;;;;5080602;28;20119;-72
2023/12/11 09:05:19;;;;;;;11.50;1.63;;;8.80;99.90;;;;;;5077112;28;20387;-72
2023/12/11 09:07:45;;;;;;;10.32;2.67;;;8.80;99.90;;;;;;5067057;28;20040;-72
2023/12/11 09:10:11;;;;;;;14.97;2.10;;;8.80;99.90;;;;;;5085110;28;20040;-73
2023/12/11 09:12:39;;;;;;;9.50;2.20;;;8.90;99.90;;;;;;5063069;28;20360;-72
2023/12/11 09:15:05;;;;;;;14.57;2.60;;;8.90;99.90;;;;;;5079947;28;20080;-72
2023/12/11 09:17:31;;;;;;;16.05;2.97;;;9.00;99.90;;;;;;5064829;28;20120;-72
2023/12/11 09:19:58;;;;;;;18.10;2.22;;;9.00;99.90;;;;;;5086440;28;20052;-72
2023/12/11 09:22:24;;;;;;;;;;;9.00;99.90;;;;;;5086980;28;20395;-72
2023/12/11 09:24:50;;;;;;;10.75;1.85;;;9.10;99.90;;;;;;5083438;28;20491;-72
2023/12/11 09:27:15;;;;;;;7.13;1.52;;;9.10;99.90;;;;;;5067100;28;20563;-72
2023/12/11 09:29:41;;;;;;;7.07;1.13;;;9.10;99.90;;;;;;5082787;28;20052;-72
2023/12/11 09:32:07;;;;;;;8.47;1.67;;;9.20;99.90;;;;;;5087721;28;20119;-71
2023/12/11 09:34:35;;;;;;;10.57;2.30;;;9.20;99.90;;;;;;5077991;28;20166;-72
2023/12/11 09:37:01;;;;;;;12.50;1.50;;;9.20;99.90;;;;;;5080903;28;20063;-72
2023/12/11 09:39:27;;;;;;;12.33;1.90;;;9.20;99.90;;;;;;5078909;28;20499;-71
2023/12/11 09:41:53;;;;;;;8.13;1.40;;;9.20;99.90;;;;;;5078130;28;20047;-78
2023/12/11 09:44:21;;;;;;;8.18;1.52;;;9.20;99.90;;;;;;5087338;28;20320;-72
2023/12/11 09:46:58;;;;;;;12.98;1.35;;;9.20;99.90;;;;;;5081892;28;20044;-72
2023/12/11 09:49:24;;;;;;;6.90;1.65;;;9.20;99.90;;;;;;5069283;28;20137;-72
2023/12/11 09:51:52;;;;;;;11.73;1.70;;;9.30;99.90;;;;;;5075509;28;20537;-72
2023/12/11 09:54:17;;;;;;;9.68;1.25;;;9.30;99.90;;;;;;5075919;28;20056;-72
2023/12/11 09:56:43;;;;;;;15.50;2.13;;;9.30;99.90;;;;;;5078758;28;20044;-72
2023/12/11 09:59:10;;;;;;;6.93;1.40;;;9.30;99.90;;;;;;5082376;28;20544;-72
2023/12/11 10:01:37;;;;;;;16.08;2.40;;;9.30;99.90;;;;;;5074814;28;20504;-72
2023/12/11 10:04:03;;;;;;;14.57;2.80;;;9.30;99.90;;;;;;5076258;28;20105;-72
2023/12/11 10:06:29;;;;;;;8.32;1.55;;;9.30;99.90;;;;;;5075339;28;20123;-72
2023/12/11 10:08:55;;;;;;;15.20;1.57;;;9.40;99.90;;;;;;5089107;28;20043;-72
2023/12/11 10:11:22;;;;;;;22.95;2.20;;;9.40;99.90;;;;;;5076089;28;20688;-72
2023/12/11 10:13:49;;;;;;;6.97;1.92;;;9.40;99.90;;;;;;5074106;28;20320;-72
2023/12/11 10:16:29;;;;;;;10.65;1.80;;;9.40;99.90;;;;;;5077534;28;20056;-72
2023/12/11 10:18:56;;;;;;;12.55;1.92;;;9.40;99.90;;;;;;5080129;28;20566;-74
2023/12/11 10:21:24;;;;;;;24.23;2.47;;;9.40;99.90;;;;;;5084228;28;20046;-72
2023/12/11 10:24:06;;;;;;;16.67;3.75;;;9.50;99.90;;;;;;5079320;28;20153;-72
2023/12/11 10:26:36;;;;;;;10.00;2.45;;;9.50;99.90;;;;;;5077902;28;20048;-72
2023/12/11 10:29:21;;;;;;;14.20;2.38;;;9.50;99.90;;;;;;5080084;28;20181;-72
2023/12/11 10:31:51;;;;;;;11.02;1.85;;;9.50;99.90;;;;;;5056353;28;20196;-72
2023/12/11 10:34:17;;;;;;;11.48;2.85;;;9.60;99.90;;;;;;5075682;28;20048;-72
2023/12/11 10:36:52;;;;;;;9.75;2.20;;;9.60;99.90;;;;;;5084048;28;20055;-72
2023/12/11 10:39:21;;;;;;;13.02;2.80;;;9.60;99.90;;;;;;5082099;28;20056;-72
2023/12/11 10:41:47;;;;;;;12.98;1.88;;;9.60;99.90;;;;;;5078137;28;20089;-72
2023/12/11 10:44:27;;;;;;;17.50;1.77;;;9.60;99.90;;;;;;5075411;28;20048;-71
2023/12/11 10:46:57;;;;;;;13.75;2.53;;;9.60;99.90;;;;;;5082487;28;20272;-72
2023/12/11 10:49:23;;;;;;;7.63;1.73;;;9.60;99.90;;;;;;5090658;28;20071;-71
2023/12/11 10:51:49;;;;;;;;;;;9.60;99.90;;;;;;5083883;28;20044;-72
2023/12/11 10:54:15;;;;;;;10.13;1.63;;;9.60;99.90;;;;;;5082932;28;20333;-72
2023/12/11 10:56:45;;;;;;;9.95;1.70;;;9.60;99.90;;;;;;5063128;28;20040;-72
2023/12/11 10:59:12;;;;;;;20.17;2.00;;;9.60;99.90;;;;;;5080755;28;20100;-72
2023/12/11 11:01:44;;;;;;;12.75;1.65;;;9.60;99.90;;;;;;5077520;28;20040;-72
2023/12/11 11:04:12;;;;;;;6.97;1.10;;;9.60;99.90;;;;;;5085809;28;20056;-72
2023/12/11 11:06:46;;;;;;;7.00;1.02;;;9.60;99.90;;;;;;5078938;28;20060;-72
2023/12/11 11:09:18;;;;;;;9.95;1.95;;;9.60;99.90;;;;;;5078953;28;20092;-72
2023/12/11 11:11:52;;;;;;;5.22;1.10;;;9.60;99.90;;;;;;5084390;28;20505;-72
2023/12/11 11:14:17;;;;;;;5.45;1.00;;;9.60;99.90;;;;;;5085452;28;20162;-71
2023/12/11 11:16:57;;;;;;;4.60;0.97;;;9.60;99.90;;;;;;5083307;28;20032;-72
2023/12/11 11:19:24;;;;;;;3.70;0.60;;;9.50;99.90;;;;;;5080052;28;20566;-72
2023/12/11 11:22:06;;;;;;;6.40;1.20;;;9.60;99.90;;;;;;5085843;28;20571;-72
2023/12/11 11:24:34;;;;;;;12.10;1.45;;;9.50;99.90;;;;;;5068205;28;20532;-72
2023/12/11 11:27:02;;;;;;;10.80;1.63;;;9.50;99.90;;;;;;5078229;28;20131;-72
2023/12/11 11:29:36;;;;;;;9.43;1.20;;;9.60;99.90;;;;;;5077389;28;20531;-73
2023/12/11 11:32:02;;;;;;;5.55;1.98;;;9.60;99.90;;;;;;5076463;28;20042;-73
2023/12/11 11:34:40;;;;;;;5.93;2.00;;;9.50;99.90;;;;;;5086170;28;20081;-73
2023/12/11 11:37:07;;;;;;;11.70;2.17;;;9.50;99.90;;;;;;5061291;28;20048;-73
2023/12/11 11:39:51;;;;;;;14.60;3.10;;;9.50;99.90;;;;;;5073436;28;20133;-73
2023/12/11 11:42:17;;;;;;;15.68;2.53;;;9.50;99.90;;;;;;5066647;28;20043;-73
2023/12/11 11:44:43;;;;;;;14.77;2.40;;;9.50;99.90;;;;;;5078268;28;20385;-73
2023/12/11 11:47:09;;;;;;;23.40;2.80;;;9.40;99.90;;;;;;5077335;28;20087;-73
2023/12/11 11:49:35;;;;;;;11.70;2.03;;;9.40;99.90;;;;;;5079391;28;20446;-73
2023/12/11 11:52:06;;;;;;;12.75;1.80;;;9.40;99.90;;;;;;5073053;28;20059;-73
2023/12/11 11:54:35;;;;;;;11.43;2.28;;;9.30;99.90;;;;;;5080368;28;20048;-73
2023/12/11 11:57:01;;;;;;;11.25;1.98;;;9.30;99.90;;;;;;5076352;28;20403;-73
2023/12/11 11:59:26;;;;;;;19.20;2.67;;;9.20;99.90;;;;;;5078709;28;20035;-73
2023/12/11 12:01:58;;;;;;;15.80;1.90;;;9.20;99.90;;;;;;5080214;28;20435;-73
2023/12/11 12:04:34;;;;;;;5.95;1.35;;;9.20;99.90;;;;;;5074506;28;20127;-73
2023/12/11 12:07:02;;;;;;;9.43;1.15;;;9.20;99.90;;;;;;5078343;28;20036;-71
2023/12/11 12:09:30;;;;;;;5.07;1.40;;;9.20;99.90;;;;;;5075487;28;20457;-71
2023/12/11 12:11:56;;;;;;;14.07;2.00;;;9.10;99.90;;;;;;5073580;28;20067;-72
2023/12/11 12:14:22;;;;;;;8.53;1.60;;;9.20;99.90;;;;;;5083447;28;20067;-72
2023/12/11 12:16:48;;;;;;;7.03;1.30;;;9.20;99.90;;;;;;5080074;28;20291;-72
2023/12/11 12:19:15;;;;;;;6.23;1.40;;;9.20;99.90;;;;;;5059471;28;20131;-72
2023/12/11 12:21:55;;;;;;;5.00;0.80;;;9.20;99.90;;;;;;5061957;28;20108;-72
2023/12/11 12:24:21;;;;;;;4.13;0.80;;;9.20;99.90;;;;;;5075573;28;20048;-72
2023/12/11 12:26:52;;;;;;;;;;;9.20;99.90;;;;;;5078177;28;20039;-71
2023/12/11 12:29:18;;;;;;;11.32;1.20;;;9.20;99.90;;;;;;5090114;28;20342;-72
2023/12/11 12:31:45;;;;;;;5.43;0.93;;;9.10;99.90;;;;;;5084334;28;20081;-72
2023/12/11 12:34:13;;;;;;;8.48;0.90;;;9.10;99.90;;;;;;5082550;28;20052;-72
2023/12/11 12:36:40;;;;;;;5.13;1.50;;;9.10;99.90;;;;;;5088337;28;20046;-73
2023/12/11 12:39:06;;;;;;;;;;;9.00;99.90;;;;;;5081555;28;20040;-73
2023/12/11 12:41:32;;;;;;;5.47;0.68;;;9.00;99.90;;;;;;5079965;28;19971;-74
2023/12/11 12:43:58;;;;;;;4.22;1.40;;;9.00;99.90;;;;;;5082198;28;20037;-73
2023/12/11 12:46:26;;;;;;;5.95;1.05;;;9.00;99.90;;;;;;5052093;28;20417;-73
2023/12/11 12:48:52;;;;;;;4.55;1.35;;;9.00;99.90;;;;;;5083929;28;20037;-73
2023/12/11 12:51:18;;;;;;;2.25;0.50;;;8.90;99.90;;;;;;5077507;28;20115;-73